Time,TemperatureF,DewpointF,PressureIn,WindDirection,WindDirectionDegrees,WindSpeedMPH,WindSpeedGustMPH,Humidity,HourlyPrecipIn,Conditions,Clouds,dailyrainin,SoftwareType,DateUTC
2013-12-08 00:00:00,77.5,71.6,29.89,SE,135,1.9,6.2,82,0.00,,FEW030,0.00,VWS V13.01,2013-12-07 14:00:00,
2013-12-08 00:15:00,77.8,71.9,29.89,SE,135,1.9,6.2,82,0.00,,FEW030,0.00,VWS V13.01,2013-12-07 14:15:00,
2013-12-08 00:30:00,78.0,72.8,29.89,SE,135,0.6,2.5,84,0.00,,FEW030,0.00,VWS V13.01,2013-12-07 14:30:00,
2013-12-08 00:45:00,77.5,72.6,29.88,SE,135,0.6,1.3,85,0.00,,FEW030,0.00,VWS V13.01,2013-12-07 14:45:00,
2013-12-08 01:00:00,77.0,72.5,29.87,SE,135,0.6,1.3,86,0.00,,FEW030,0.00,VWS V13.01,2013-12-07 15:00:00,
2013-12-08 01:15:00,76.6,72.4,29.87,SE,135,0.6,1.3,87,0.00,,FEW030,0.00,VWS V13.01,2013-12-07 15:15:00,
2013-12-08 01:30:00,76.7,71.9,29.86,SE,135,1.9,5.0,85,0.00,,FEW030,0.00,VWS V13.01,2013-12-07 15:30:00,
2013-12-08 01:45:00,77.2,72.0,29.86,SE,135,1.9,7.5,84,0.00,,FEW030,0.00,VWS V13.01,2013-12-07 15:45:00,
2013-12-08 02:00:00,77.3,72.1,29.85,SE,135,1.9,3.8,84,0.00,,FEW030,0.00,VWS V13.01,2013-12-07 16:00:00,
2013-12-08 02:15:00,77.3,72.1,29.85,SE,135,1.9,5.0,84,0.00,,FEW030,0.00,VWS V13.01,2013-12-07 16:15:00,
2013-12-08 02:30:00,77.1,72.2,29.85,SSE,158,0.6,3.8,85,0.00,,FEW030,0.00,VWS V13.01,2013-12-07 16:30:00,
2013-12-08 02:45:00,76.8,71.9,29.85,SE,135,1.9,3.8,85,0.00,,FEW030,0.00,VWS V13.01,2013-12-07 16:45:00,
2013-12-08 03:00:00,76.6,71.8,29.85,SE,135,0.6,2.5,85,0.00,,FEW030,0.00,VWS V13.01,2013-12-07 17:00:00,
2013-12-08 03:15:00,76.3,71.8,29.84,SE,135,0.6,2.5,86,0.00,,FEW030,0.00,VWS V13.01,2013-12-07 17:15:00,
2013-12-08 03:30:00,76.2,71.7,29.84,SE,135,0.6,3.8,86,0.00,,FEW030,0.00,VWS V13.01,2013-12-07 17:30:00,
2013-12-08 03:45:00,76.2,71.7,29.84,SSE,158,0.6,1.3,86,0.00,,FEW030,0.00,VWS V13.01,2013-12-07 17:45:00,
2013-12-08 04:00:00,76.1,71.6,29.84,SSE,158,0.6,1.3,86,0.00,,FEW030,0.00,VWS V13.01,2013-12-07 18:00:00,
2013-12-08 04:15:00,76.1,71.6,29.84,SE,135,0.6,2.5,86,0.00,,FEW030,0.00,VWS V13.01,2013-12-07 18:15:00,
2013-12-08 04:30:00,75.7,71.6,29.84,SSE,158,0.6,1.3,87,0.00,,FEW030,0.00,VWS V13.01,2013-12-07 18:30:00,
2013-12-08 04:45:00,75.1,71.3,29.84,SSE,158,0.6,0.0,88,0.00,,FEW030,0.00,VWS V13.01,2013-12-07 18:45:00,
2013-12-08 05:00:00,74.6,71.2,29.84,SE,135,0.6,1.3,89,0.00,,FEW030,0.00,VWS V13.01,2013-12-07 19:00:00,
2013-12-08 05:15:00,74.3,70.8,29.85,SE,135,0.6,0.0,89,0.00,,FEW030,0.00,VWS V13.01,2013-12-07 19:15:00,
2013-12-08 05:30:00,73.9,70.8,29.85,SSE,158,0.6,1.3,90,0.00,,FEW030,0.00,VWS V13.01,2013-12-07 19:30:00,
2013-12-08 05:45:00,74.1,71.0,29.86,SE,135,0.6,3.8,90,0.00,,FEW030,0.00,VWS V13.01,2013-12-07 19:45:00,
2013-12-08 06:00:00,75.0,71.2,29.86,SE,135,1.9,5.0,88,0.00,,FEW030,0.00,VWS V13.01,2013-12-07 20:00:00,
2013-12-08 06:15:00,75.6,71.5,29.87,SE,135,1.9,3.8,87,0.00,,FEW030,0.00,VWS V13.01,2013-12-07 20:15:00,
2013-12-08 06:30:00,76.1,71.6,29.87,SE,135,0.6,2.5,86,0.00,,FEW030,0.00,VWS V13.01,2013-12-07 20:30:00,
2013-12-08 06:45:00,77.9,71.6,29.87,SE,135,3.1,6.2,81,0.00,,FEW030,0.00,VWS V13.01,2013-12-07 20:45:00,
2013-12-08 07:00:00,79.5,72.0,29.88,SE,135,3.1,7.5,78,0.00,,FEW030,0.00,VWS V13.01,2013-12-07 21:00:00,
2013-12-08 07:15:00,80.7,72.4,29.88,SE,135,1.9,7.5,76,0.00,,FEW030,0.00,VWS V13.01,2013-12-07 21:15:00,
2013-12-08 07:30:00,81.7,73.0,29.89,SSE,158,3.1,11.3,75,0.00,,FEW030,0.00,VWS V13.01,2013-12-07 21:30:00,
2013-12-08 07:45:00,82.4,72.9,29.89,SE,135,4.4,10.0,73,0.00,,FEW030,0.00,VWS V13.01,2013-12-07 21:45:00,
2013-12-08 08:00:00,83.2,72.8,29.89,SE,135,5.6,12.5,71,0.00,,FEW030,0.00,VWS V13.01,2013-12-07 22:00:00,
2013-12-08 08:10:00,83.2,72.8,29.89,SE,135,5.6,12.5,71,0.00,,FEW030,0.00,VWS V13.01,2013-12-07 22:10:00,
2013-12-08 08:15:00,84.4,73.6,29.89,SE,142,4.4,12.5,70,0.00,,FEW030,0.00,VWS V13.01,2013-12-07 22:15:00,
2013-12-08 08:20:00,84.3,73.0,29.89,SSE,149,3.1,12.5,69,0.00,,SCT025,0.00,VWS V13.01,2013-12-07 22:20:00,
2013-12-08 08:25:00,84.1,72.8,29.90,SSE,152,6.9,12.5,69,0.00,,SCT025,0.00,VWS V13.01,2013-12-07 22:25:00,
2013-12-08 08:30:00,84.1,73.3,29.89,SE,142,3.1,12.5,70,0.00,,SCT025,0.00,VWS V13.01,2013-12-07 22:30:00,
2013-12-08 08:35:00,84.6,73.3,29.89,SE,133,1.9,12.5,69,0.00,,SCT025,0.00,VWS V13.01,2013-12-07 22:35:00,
2013-12-08 08:40:00,84.8,73.9,29.90,SSW,196,8.1,12.5,70,0.00,,SCT025,0.00,VWS V13.01,2013-12-07 22:40:00,
2013-12-08 08:45:00,84.6,73.3,29.89,SE,135,1.9,12.5,69,0.00,,SCT025,0.00,VWS V13.01,2013-12-07 22:45:00,
2013-12-08 08:50:00,85.4,73.6,29.89,ESE,114,1.9,12.5,68,0.00,,SCT026,0.00,VWS V13.01,2013-12-07 22:50:00,
2013-12-08 08:55:00,85.5,73.7,29.89,ESE,113,3.1,12.5,68,0.00,,SCT026,0.00,VWS V13.01,2013-12-07 22:55:00,
2013-12-08 09:00:00,85.1,72.9,29.89,ESE,112,6.9,12.5,67,0.00,,SCT026,0.00,VWS V13.01,2013-12-07 23:00:00,
2013-12-08 09:05:00,85.3,73.1,29.89,SE,126,8.1,12.5,67,0.00,,SCT026,0.00,VWS V13.01,2013-12-07 23:05:00,
2013-12-08 09:10:00,85.7,73.0,29.89,SE,137,5.6,12.5,66,0.00,,SCT026,0.00,VWS V13.01,2013-12-07 23:10:00,
2013-12-08 09:15:00,85.7,72.6,29.89,SE,133,4.4,12.5,65,0.00,,SCT026,0.00,VWS V13.01,2013-12-07 23:15:00,
2013-12-08 09:20:00,85.5,72.8,29.89,SSE,154,3.1,12.5,66,0.00,,SCT026,0.00,VWS V13.01,2013-12-07 23:20:00,
2013-12-08 09:25:00,85.2,72.6,29.89,SE,135,8.1,12.5,66,0.00,,SCT026,0.00,VWS V13.01,2013-12-07 23:25:00,
2013-12-08 09:30:00,85.4,73.2,29.89,SSE,152,5.6,12.5,67,0.00,,SCT026,0.00,VWS V13.01,2013-12-07 23:30:00,
2013-12-08 09:35:00,86.4,72.8,29.89,SE,131,3.1,12.5,64,0.00,,SCT026,0.00,VWS V13.01,2013-12-07 23:35:00,
2013-12-08 09:40:00,87.1,73.4,29.89,East,100,3.1,12.5,64,0.00,,SCT026,0.00,VWS V13.01,2013-12-07 23:40:00,
2013-12-08 09:54:00,85.8,73.6,29.89,ESE,117,5.6,12.5,67,0.00,,SCT026,0.00,VWS V13.01,2013-12-07 23:54:00,
2013-12-08 09:59:00,86.5,73.8,29.89,SE,140,3.1,12.5,66,0.00,,SCT026,0.00,VWS V13.01,2013-12-07 23:59:00,
2013-12-08 10:04:00,87.1,73.0,29.89,ESE,114,14.4,14.4,63,0.00,,SCT026,0.00,VWS V13.01,2013-12-08 00:04:00,
2013-12-08 10:09:00,87.0,73.4,29.89,SE,125,1.9,12.5,64,0.00,,SCT026,0.00,VWS V13.01,2013-12-08 00:09:00,
2013-12-08 10:14:00,87.7,73.6,29.89,SE,135,11.9,12.5,63,0.00,,SCT026,0.00,VWS V13.01,2013-12-08 00:14:00,
2013-12-08 10:19:00,87.8,74.1,29.89,SE,142,11.9,12.5,64,0.00,,SCT026,0.00,VWS V13.01,2013-12-08 00:19:00,
2013-12-08 10:24:00,87.7,74.0,29.89,ESE,119,8.1,12.5,64,0.00,,SCT026,0.00,VWS V13.01,2013-12-08 00:24:00,
2013-12-08 10:29:00,87.9,74.7,29.89,SE,125,5.6,12.5,65,0.00,,SCT026,0.00,VWS V13.01,2013-12-08 00:29:00,
2013-12-08 10:34:00,87.3,74.1,29.89,ESE,103,6.9,12.5,65,0.00,,SCT026,0.00,VWS V13.01,2013-12-08 00:34:00,
2013-12-08 10:39:00,86.3,74.9,29.89,ESE,104,5.6,12.5,69,0.00,,SCT026,0.00,VWS V13.01,2013-12-08 00:39:00,
2013-12-08 10:44:00,86.0,75.1,29.88,ENE,74,9.4,12.5,70,0.00,,SCT026,0.00,VWS V13.01,2013-12-08 00:44:00,
2013-12-08 10:49:00,86.2,75.3,29.88,ENE,77,15.6,15.6,70,0.00,,SCT027,0.00,VWS V13.01,2013-12-08 00:49:00,
2013-12-08 10:54:00,86.0,75.1,29.89,East,83,8.1,12.5,70,0.00,,SCT027,0.00,VWS V13.01,2013-12-08 00:54:00,
2013-12-08 10:59:00,86.0,74.7,29.89,ENE,73,10.6,12.5,69,0.00,,SCT027,0.00,VWS V13.01,2013-12-08 00:59:00,
2013-12-08 11:04:00,86.3,74.9,29.88,SE,128,6.9,12.5,69,0.00,,SCT027,0.00,VWS V13.01,2013-12-08 01:04:00,
2013-12-08 11:09:00,86.8,75.8,29.88,ESE,112,8.1,12.5,70,0.00,,SCT027,0.00,VWS V13.01,2013-12-08 01:09:00,
2013-12-08 11:14:00,87.4,75.1,29.88,SE,145,6.9,12.5,67,0.00,,SCT027,0.00,VWS V13.01,2013-12-08 01:14:00,
2013-12-08 11:19:00,87.5,75.2,29.88,ESE,113,6.9,12.5,67,0.00,,SCT026,0.00,VWS V13.01,2013-12-08 01:19:00,
2013-12-08 11:24:00,87.1,74.8,29.88,ESE,120,10.6,12.5,67,0.00,,SCT026,0.00,VWS V13.01,2013-12-08 01:24:00,
2013-12-08 11:29:00,86.6,74.8,29.88,SE,134,8.1,12.5,68,0.00,,SCT026,0.00,VWS V13.01,2013-12-08 01:29:00,
2013-12-08 11:34:00,87.2,74.9,29.88,ESE,108,5.6,12.5,67,0.00,,SCT026,0.00,VWS V13.01,2013-12-08 01:34:00,
2013-12-08 11:39:00,87.2,74.9,29.88,East,100,9.4,12.5,67,0.00,,SCT026,0.00,VWS V13.01,2013-12-08 01:39:00,
2013-12-08 11:44:00,87.1,74.8,29.88,SSE,162,3.1,12.5,67,0.00,,SCT026,0.00,VWS V13.01,2013-12-08 01:44:00,
2013-12-08 11:58:00,86.8,75.8,29.87,ENE,76,8.1,12.5,70,0.00,,SCT026,0.00,VWS V13.01,2013-12-08 01:58:00,
2013-12-08 12:03:00,87.0,75.2,29.87,SE,142,8.1,12.5,68,0.00,,SCT026,0.00,VWS V13.01,2013-12-08 02:03:00,
2013-12-08 12:08:00,86.6,76.1,29.87,East,81,11.9,12.5,71,0.00,,SCT026,0.00,VWS V13.01,2013-12-08 02:08:00,
2013-12-08 12:13:00,87.0,76.5,29.87,NE,45,6.9,12.5,71,0.00,,SCT026,0.00,VWS V13.01,2013-12-08 02:13:00,
2013-12-08 12:18:00,87.2,76.2,29.87,ESE,102,9.4,12.5,70,0.00,,SCT026,0.00,VWS V13.01,2013-12-08 02:18:00,
2013-12-08 12:23:00,86.6,75.7,29.86,ESE,112,9.4,12.5,70,0.00,,SCT026,0.00,VWS V13.01,2013-12-08 02:23:00,
2013-12-08 12:28:00,86.6,76.1,29.86,ESE,102,9.4,12.5,71,0.00,,SCT026,0.00,VWS V13.01,2013-12-08 02:28:00,
2013-12-08 12:33:00,86.2,75.3,29.86,ESE,123,14.4,14.4,70,0.00,,SCT026,0.00,VWS V13.01,2013-12-08 02:33:00,
2013-12-08 12:38:00,85.9,75.4,29.85,East,81,13.1,13.1,71,0.00,,SCT026,0.00,VWS V13.01,2013-12-08 02:38:00,
2013-12-08 12:51:00,86.8,75.4,29.85,ESE,121,10.6,12.5,69,0.00,,SCT026,0.00,VWS V13.01,2013-12-08 02:51:00,
2013-12-08 12:56:00,86.8,75.0,29.85,ESE,121,6.9,12.5,68,0.00,,SCT026,0.00,VWS V13.01,2013-12-08 02:56:00,
2013-12-08 14:03:00,84.4,73.6,29.84,SE,142,5.6,12.5,70,0.00,,SCT026,0.00,VWS V13.01,2013-12-08 04:03:00,
2013-12-08 14:08:00,84.2,73.4,29.84,SE,140,11.9,12.5,70,0.00,,SCT026,0.00,VWS V13.01,2013-12-08 04:08:00,
2013-12-08 14:13:00,84.0,73.2,29.84,South,174,4.4,12.5,70,0.00,,SCT026,0.00,VWS V13.01,2013-12-08 04:13:00,
2013-12-08 14:18:00,83.9,73.1,29.84,ESE,113,4.4,12.5,70,0.00,,SCT040,0.00,VWS V13.01,2013-12-08 04:18:00,
2013-12-08 14:23:00,84.4,73.6,29.84,SE,140,6.9,12.5,70,0.00,,SCT040,0.00,VWS V13.01,2013-12-08 04:23:00,
2013-12-08 14:28:00,85.1,73.4,29.84,SSE,163,5.6,12.5,68,0.00,,SCT040,0.00,VWS V13.01,2013-12-08 04:28:00,
2013-12-08 14:33:00,84.8,73.5,29.84,SE,133,4.4,12.5,69,0.00,,SCT040,0.00,VWS V13.01,2013-12-08 04:33:00,
2013-12-08 14:38:00,84.7,73.4,29.84,SE,130,4.4,12.5,69,0.00,,SCT040,0.00,VWS V13.01,2013-12-08 04:38:00,
2013-12-08 15:25:00,86.2,74.0,29.82,East,92,6.9,12.5,67,0.00,,SCT040,0.00,VWS V13.01,2013-12-08 05:25:00,
2013-12-08 15:26:00,86.2,74.4,29.82,ENE,77,6.9,12.5,68,0.00,,SCT040,0.00,VWS V13.01,2013-12-08 05:26:00,
2013-12-08 15:31:00,85.4,74.1,29.82,SE,133,8.1,12.5,69,0.00,,SHRA,0.00,VWS V13.01,2013-12-08 05:31:00,
2013-12-08 15:36:00,83.9,74.3,29.82,East,97,6.9,12.5,73,0.00,,SHRA,0.00,VWS V13.01,2013-12-08 05:36:00,
2013-12-08 15:41:00,82.1,74.2,29.82,East,80,6.9,12.5,77,0.00,,SHRA,0.00,VWS V13.01,2013-12-08 05:41:00,
2013-12-08 15:46:00,80.7,74.3,29.83,SSE,148,4.4,12.5,81,0.00,,BKN040,0.00,VWS V13.01,2013-12-08 05:46:00,
2013-12-08 15:51:00,80.5,73.8,29.83,SE,128,1.9,12.5,80,0.00,,BKN040,0.00,VWS V13.01,2013-12-08 05:51:00,
2013-12-08 16:55:00,77.1,73.9,29.84,South,169,0.6,12.5,90,0.11,,BKN040,0.11,VWS V13.01,2013-12-08 06:55:00,
2013-12-08 17:00:00,77.3,74.1,29.84,SSW,192,3.1,12.5,90,0.11,,BKN040,0.11,VWS V13.01,2013-12-08 07:00:00,
2013-12-08 17:05:00,77.3,74.1,29.84,SW,219,5.6,12.5,90,0.11,,BKN040,0.11,VWS V13.01,2013-12-08 07:05:00,
2013-12-08 17:09:00,77.2,74.0,29.84,SSW,211,3.1,12.5,90,0.11,,BKN040,0.11,VWS V13.01,2013-12-08 07:09:00,
2013-12-08 17:14:00,77.4,74.2,29.84,South,187,1.9,12.5,90,0.11,,BKN040,0.11,VWS V13.01,2013-12-08 07:14:00,
2013-12-08 17:19:00,77.3,73.8,29.84,South,175,1.9,12.5,89,0.11,,BKN045,0.11,VWS V13.01,2013-12-08 07:19:00,
2013-12-08 17:30:00,77.4,74.2,29.83,South,180,1.9,5.0,90,0.11,,BKN045,0.11,VWS V13.01,2013-12-08 07:30:00,
2013-12-08 17:45:00,78.1,73.9,29.83,South,180,1.9,3.8,87,0.11,,BKN045,0.11,VWS V13.01,2013-12-08 07:45:00,
2013-12-08 18:00:00,80.1,74.8,29.83,South,180,0.6,5.0,84,0.11,,BKN045,0.11,VWS V13.01,2013-12-08 08:00:00,
2013-12-08 18:15:00,80.3,75.0,29.84,SSE,158,0.6,1.3,84,0.00,,BKN045,0.11,VWS V13.01,2013-12-08 08:15:00,
2013-12-08 18:30:00,79.7,74.8,29.84,SE,135,0.6,2.5,85,0.00,,BKN045,0.11,VWS V13.01,2013-12-08 08:30:00,
2013-12-08 18:45:00,79.1,74.6,29.85,SSE,158,0.6,2.5,86,0.03,,BKN045,0.14,VWS V13.01,2013-12-08 08:45:00,
2013-12-08 19:00:00,78.4,74.6,29.85,SSE,158,1.9,11.3,88,0.04,,BKN045,0.15,VWS V13.01,2013-12-08 09:00:00,
2013-12-08 19:15:00,76.5,73.3,29.86,SSE,158,3.1,10.0,90,0.04,,BKN045,0.15,VWS V13.01,2013-12-08 09:15:00,
2013-12-08 19:30:00,75.3,72.5,29.86,SSE,158,1.9,6.2,91,0.04,,BKN045,0.15,VWS V13.01,2013-12-08 09:30:00,
2013-12-08 19:45:00,75.2,72.4,29.86,SE,135,1.9,5.0,91,0.04,,BKN045,0.15,VWS V13.01,2013-12-08 09:45:00,
2013-12-08 20:00:00,75.2,72.7,29.86,SSE,158,0.6,2.5,92,0.01,,BKN045,0.15,VWS V13.01,2013-12-08 10:00:00,
2013-12-08 20:15:00,75.3,72.8,29.86,SSE,158,1.9,7.5,92,0.00,,BKN045,0.15,VWS V13.01,2013-12-08 10:15:00,
2013-12-08 20:30:00,75.1,72.6,29.86,SSE,158,1.9,6.2,92,0.00,,BKN045,0.15,VWS V13.01,2013-12-08 10:30:00,
2013-12-08 20:45:00,75.2,72.4,29.87,SSE,158,1.9,6.2,91,0.00,,BKN045,0.15,VWS V13.01,2013-12-08 10:45:00,
2013-12-08 21:00:00,75.6,72.5,29.87,SE,135,1.9,5.0,90,0.00,,BKN045,0.15,VWS V13.01,2013-12-08 11:00:00,
2013-12-08 21:15:00,75.9,73.1,29.88,SE,135,1.9,5.0,91,0.01,,BKN045,0.16,VWS V13.01,2013-12-08 11:15:00,
2013-12-08 21:30:00,75.5,73.0,29.88,SE,135,1.9,3.8,92,0.01,,BKN045,0.16,VWS V13.01,2013-12-08 11:30:00,
2013-12-08 21:45:00,75.3,72.8,29.88,SE,135,1.9,5.0,92,0.01,,BKN045,0.16,VWS V13.01,2013-12-08 11:45:00,
2013-12-08 22:00:00,75.2,73.0,29.88,SE,135,1.9,5.0,93,0.01,,BKN045,0.16,VWS V13.01,2013-12-08 12:00:00,
2013-12-08 22:15:00,75.5,73.3,29.88,ESE,112,0.6,3.8,93,0.02,,BKN045,0.17,VWS V13.01,2013-12-08 12:15:00,
2013-12-08 22:30:00,75.5,73.3,29.88,SE,135,0.6,1.3,93,0.01,,BKN045,0.17,VWS V13.01,2013-12-08 12:30:00,
2013-12-08 22:45:00,75.4,73.2,29.88,SSE,158,1.9,5.0,93,0.01,,BKN045,0.17,VWS V13.01,2013-12-08 12:45:00,
2013-12-08 23:00:00,75.3,72.8,29.87,SE,135,0.6,3.8,92,0.01,,BKN045,0.17,VWS V13.01,2013-12-08 13:00:00,
2013-12-08 23:15:00,75.2,73.0,29.87,SE,135,0.6,1.3,93,0.01,,BKN045,0.17,VWS V13.01,2013-12-08 13:15:00,
2013-12-08 23:30:00,75.5,73.0,29.86,SE,135,0.6,2.5,92,0.00,,BKN045,0.17,VWS V13.01,2013-12-08 13:30:00,
2013-12-08 23:45:00,75.7,73.2,29.86,SE,135,0.6,2.5,92,0.00,,BKN045,0.17,VWS V13.01,2013-12-08 13:45:00,